createdAt,value
2018-11-11T00:00:26.507Z,18.77
2018-11-11T00:02:55.438Z,19.43
2018-11-11T00:05:23.943Z,19.17
2018-11-11T00:07:52.469Z,18.80
2018-11-11T00:10:20.925Z,18.90
2018-11-11T00:12:49.453Z,20.03
2018-11-11T00:15:18.431Z,19.67
2018-11-11T00:17:47.736Z,19.50
2018-11-11T00:20:16.227Z,18.33
2018-11-11T00:22:44.725Z,20.03
2018-11-11T00:25:14.196Z,18.83
2018-11-11T00:27:42.659Z,18.53
2018-11-11T00:30:16.284Z,19.40
2018-11-11T00:32:44.826Z,19.37
2018-11-11T00:35:13.299Z,21.73
2018-11-11T00:37:42.031Z,20.47
2018-11-11T00:40:11.851Z,18.77
2018-11-11T00:42:40.411Z,18.47
2018-11-11T00:45:09.655Z,18.90
2018-11-11T00:47:38.099Z,18.17
2018-11-11T00:50:08.217Z,19.07
2018-11-11T00:52:36.817Z,19.60
2018-11-11T00:55:06.834Z,18.70
2018-11-11T00:57:35.325Z,19.80
2018-11-11T01:00:04.303Z,21.80
2018-11-11T01:02:32.801Z,21.53
2018-11-11T01:05:01.271Z,18.17
2018-11-11T01:07:29.775Z,18.60
2018-11-11T01:09:58.238Z,22.30
2018-11-11T01:12:26.766Z,21.87
2018-11-11T01:14:55.267Z,20.57
2018-11-11T01:17:23.773Z,18.03
2018-11-11T01:19:52.243Z,18.07
2018-11-11T01:22:20.727Z,19.57
2018-11-11T01:24:49.203Z,51.97
2018-11-11T01:27:17.703Z,47.70
2018-11-11T01:29:46.247Z,36.73
2018-11-11T01:32:14.719Z,65.47
2018-11-11T01:34:43.211Z,23.17
2018-11-11T01:37:11.782Z,30.87
2018-11-11T01:39:40.291Z,86.03
2018-11-11T01:42:08.800Z,198.73
2018-11-11T01:44:37.333Z,134.77
2018-11-11T01:47:06.016Z,94.00
2018-11-11T01:49:34.514Z,52.57
2018-11-11T01:52:03.008Z,44.27
2018-11-11T01:54:31.487Z,25.17
2018-11-11T01:57:02.912Z,25.23
2018-11-11T01:59:31.391Z,22.47
2018-11-11T02:01:59.870Z,19.97
2018-11-11T02:04:28.355Z,19.73
2018-11-11T02:06:56.825Z,18.60
2018-11-11T02:09:25.299Z,18.63
2018-11-11T02:11:53.765Z,22.63
2018-11-11T02:14:22.295Z,20.10
2018-11-11T02:16:50.767Z,19.13
2018-11-11T02:19:19.815Z,19.97
2018-11-11T02:21:48.376Z,19.03
2018-11-11T02:24:16.945Z,19.80
2018-11-11T02:26:45.432Z,19.80
2018-11-11T02:29:13.945Z,20.50
2018-11-11T02:31:42.432Z,20.70
2018-11-11T02:34:10.903Z,18.90
2018-11-11T02:36:39.404Z,20.40
2018-11-11T02:39:09.096Z,20.40
2018-11-11T02:41:37.576Z,19.57
2018-11-11T02:44:06.083Z,18.90
2018-11-11T02:46:34.566Z,19.13
2018-11-11T02:49:03.020Z,20.47
2018-11-11T02:51:31.547Z,19.83
2018-11-11T02:54:00.047Z,20.63
2018-11-11T02:56:28.620Z,20.70
2018-11-11T02:58:57.104Z,20.33
2018-11-11T03:01:25.631Z,19.80
2018-11-11T03:03:54.133Z,20.67
2018-11-11T03:06:22.615Z,20.40
2018-11-11T03:08:51.165Z,21.10
2018-11-11T03:11:19.642Z,20.60
2018-11-11T03:13:48.075Z,21.10
2018-11-11T03:16:16.565Z,21.07
2018-11-11T03:18:51.662Z,20.67
2018-11-11T03:21:20.268Z,20.73
2018-11-11T03:23:48.767Z,20.73
2018-11-11T03:26:17.266Z,21.93
2018-11-11T03:28:45.753Z,21.50
2018-11-11T03:31:14.203Z,21.40
2018-11-11T03:33:42.685Z,21.73
2018-11-11T03:36:11.327Z,22.47
2018-11-11T03:38:39.880Z,23.63
2018-11-11T03:41:08.407Z,22.23
2018-11-11T03:43:37.029Z,21.53
2018-11-11T03:46:05.512Z,22.97
2018-11-11T03:48:34.036Z,22.87
2018-11-11T03:51:02.511Z,22.33
2018-11-11T03:53:30.979Z,21.63
2018-11-11T03:55:59.524Z,23.00
2018-11-11T03:58:28.028Z,23.83
2018-11-11T04:00:56.504Z,22.60
2018-11-11T04:03:25.041Z,22.57
2018-11-11T04:05:54.352Z,21.27
2018-11-11T04:08:22.812Z,21.80
2018-11-11T04:10:51.326Z,20.30
2018-11-11T04:13:19.804Z,20.43
2018-11-11T04:15:48.298Z,22.40
2018-11-11T04:18:16.805Z,22.97
2018-11-11T04:20:45.355Z,23.43
2018-11-11T04:23:13.843Z,25.50
2018-11-11T04:25:42.326Z,25.30
2018-11-11T04:28:10.784Z,24.80
2018-11-11T04:30:39.290Z,25.50
2018-11-11T04:33:07.763Z,26.70
2018-11-11T04:35:36.273Z,27.93
2018-11-11T04:38:04.983Z,28.93
2018-11-11T04:40:33.498Z,27.47
2018-11-11T04:43:02.012Z,25.53
2018-11-11T04:45:30.547Z,25.13
2018-11-11T04:47:59.079Z,24.33
2018-11-11T04:50:27.567Z,25.47
2018-11-11T04:52:56.045Z,29.60
2018-11-11T04:55:24.567Z,34.93
2018-11-11T04:57:53.034Z,28.43
2018-11-11T05:00:21.549Z,27.57
2018-11-11T05:02:50.036Z,24.43
2018-11-11T05:05:18.512Z,19.97
2018-11-11T05:07:47.023Z,20.53
2018-11-11T05:10:15.542Z,20.27
2018-11-11T05:12:43.999Z,20.40
2018-11-11T05:15:13.411Z,19.13
2018-11-11T05:17:41.954Z,19.50
2018-11-11T05:20:11.410Z,20.53
2018-11-11T05:22:40.114Z,20.10
2018-11-11T05:25:10.477Z,19.77
2018-11-11T05:27:38.956Z,19.83
2018-11-11T05:30:08.994Z,24.33
2018-11-11T05:32:37.494Z,21.07
2018-11-11T05:35:06.173Z,20.03
2018-11-11T05:37:34.627Z,21.07
2018-11-11T05:40:03.159Z,21.03
2018-11-11T05:42:31.600Z,19.93
2018-11-11T05:45:00.109Z,19.47
2018-11-11T05:47:28.665Z,20.83
2018-11-11T05:49:57.126Z,20.43
2018-11-11T05:52:25.599Z,20.60
2018-11-11T05:54:54.118Z,21.53
2018-11-11T05:57:22.626Z,25.93
2018-11-11T05:59:51.155Z,24.83
2018-11-11T06:02:19.671Z,23.87
2018-11-11T06:04:48.172Z,22.77
2018-11-11T06:07:16.662Z,21.57
2018-11-11T06:09:45.174Z,20.13
2018-11-11T06:12:13.619Z,20.90
2018-11-11T06:14:42.089Z,21.63
2018-11-11T06:17:10.587Z,20.17
2018-11-11T06:19:39.123Z,20.77
2018-11-11T06:22:07.613Z,20.13
2018-11-11T06:24:36.113Z,19.80
2018-11-11T06:27:04.783Z,19.30
2018-11-11T06:29:33.275Z,19.30
2018-11-11T06:32:01.780Z,19.73
2018-11-11T06:34:30.233Z,18.97
2018-11-11T06:36:59.179Z,20.20
2018-11-11T06:39:27.702Z,19.97
2018-11-11T06:41:56.171Z,20.17
2018-11-11T06:44:24.721Z,19.03
2018-11-11T06:46:53.253Z,19.77
2018-11-11T06:49:21.696Z,20.23
2018-11-11T06:51:50.184Z,20.47
2018-11-11T06:54:18.854Z,20.97
2018-11-11T06:56:47.312Z,20.57
2018-11-11T06:59:15.803Z,23.30
2018-11-11T07:01:44.390Z,19.97
2018-11-11T07:04:12.856Z,19.03
2018-11-11T07:06:41.350Z,19.93
2018-11-11T07:09:09.826Z,20.60
2018-11-11T07:11:38.311Z,19.83
2018-11-11T07:14:06.830Z,18.47
2018-11-11T07:16:35.254Z,18.87
2018-11-11T07:19:03.718Z,18.80
2018-11-11T07:21:32.170Z,18.37
2018-11-11T07:24:00.700Z,19.90
2018-11-11T07:26:29.227Z,21.40
2018-11-11T07:28:57.727Z,20.73
2018-11-11T07:31:26.299Z,19.67
2018-11-11T07:33:54.767Z,18.37
2018-11-11T07:36:23.223Z,19.20
2018-11-11T07:38:51.732Z,20.97
2018-11-11T07:41:20.243Z,19.33
2018-11-11T07:43:48.763Z,18.93
2018-11-11T07:46:17.293Z,18.50
2018-11-11T07:48:45.908Z,18.83
2018-11-11T07:51:14.401Z,19.97
2018-11-11T07:53:42.908Z,19.77
2018-11-11T07:56:11.396Z,20.43
2018-11-11T07:58:40.012Z,23.47
2018-11-11T08:01:08.622Z,22.53
2018-11-11T08:03:37.178Z,22.47
2018-11-11T08:06:05.700Z,21.70
2018-11-11T08:08:34.280Z,23.67
2018-11-11T08:11:14.135Z,25.17
2018-11-11T08:13:42.712Z,26.83
2018-11-11T08:16:11.267Z,28.60
2018-11-11T08:18:39.767Z,27.93
2018-11-11T08:21:08.351Z,27.83
2018-11-11T08:23:37.325Z,33.43
2018-11-11T08:26:06.000Z,28.53
2018-11-11T08:28:34.657Z,27.40
2018-11-11T08:31:03.951Z,23.87
2018-11-11T08:33:32.627Z,28.77
2018-11-11T08:36:01.151Z,24.80
2018-11-11T08:38:29.677Z,23.77
2018-11-11T08:40:58.143Z,25.00
2018-11-11T08:43:26.809Z,25.17
2018-11-11T08:45:55.403Z,26.77
2018-11-11T08:48:24.056Z,22.40
2018-11-11T08:50:52.510Z,23.17
2018-11-11T08:53:21.092Z,23.13
2018-11-11T08:55:49.645Z,23.23
2018-11-11T08:58:18.244Z,22.27
2018-11-11T09:00:46.844Z,20.20
2018-11-11T09:03:15.388Z,20.30
2018-11-11T09:05:44.004Z,26.13
2018-11-11T09:08:12.529Z,18.53
2018-11-11T09:10:41.042Z,18.40
2018-11-11T09:13:09.606Z,24.80
2018-11-11T09:15:39.244Z,24.27
2018-11-11T09:18:07.814Z,24.90
2018-11-11T09:20:36.930Z,21.17
2018-11-11T09:23:05.602Z,22.30
2018-11-11T09:25:34.200Z,28.30
2018-11-11T09:28:02.820Z,25.83
2018-11-11T09:30:31.388Z,23.03
2018-11-11T09:32:59.948Z,25.13
2018-11-11T09:35:28.514Z,25.40
2018-11-11T09:37:57.011Z,25.33
2018-11-11T09:40:25.512Z,21.43
2018-11-11T09:42:54.071Z,19.77
2018-11-11T09:45:22.667Z,19.23
2018-11-11T09:47:51.266Z,19.97
2018-11-11T09:50:19.853Z,19.50
2018-11-11T09:52:48.555Z,21.90
2018-11-11T09:55:17.102Z,15.80
2018-11-11T09:57:45.683Z,16.60
2018-11-11T10:00:22.404Z,17.67
2018-11-11T10:03:01.641Z,16.67
2018-11-11T10:05:38.721Z,16.07
2018-11-11T10:08:23.286Z,15.10
2018-11-11T10:10:56.879Z,14.50
2018-11-11T10:15:35.641Z,17.47
2018-11-11T10:18:17.059Z,15.10
2018-11-11T10:20:53.193Z,17.67
2018-11-11T10:23:27.023Z,18.17
2018-11-11T10:26:01.068Z,17.77
2018-11-11T10:28:35.413Z,16.23
2018-11-11T10:31:22.104Z,15.20
2018-11-11T10:33:57.828Z,16.77
2018-11-11T10:36:32.666Z,15.93
2018-11-11T10:39:08.522Z,16.27
2018-11-11T10:43:47.531Z,16.10
2018-11-11T10:46:25.159Z,15.07
2018-11-11T10:48:57.354Z,15.53
2018-11-11T10:51:25.940Z,14.70
2018-11-11T10:53:54.630Z,14.47
2018-11-11T10:56:23.129Z,15.03
2018-11-11T10:58:51.759Z,23.40
2018-11-11T11:01:25.632Z,18.57
2018-11-11T11:03:54.148Z,17.57
2018-11-11T11:07:25.759Z,14.90
2018-11-11T11:09:54.267Z,15.77
2018-11-11T11:12:22.789Z,15.37
2018-11-11T11:14:51.363Z,14.63
2018-11-11T11:17:19.931Z,14.30
2018-11-11T11:19:52.652Z,14.33
2018-11-11T11:22:21.225Z,14.20
2018-11-11T11:24:49.982Z,12.87
2018-11-11T11:27:18.613Z,11.87
2018-11-11T11:29:47.276Z,12.07
2018-11-11T11:32:15.935Z,13.67
2018-11-11T11:34:44.485Z,13.27
2018-11-11T11:37:14.045Z,13.40
2018-11-11T11:39:42.957Z,13.67
2018-11-11T11:42:11.512Z,13.60
2018-11-11T11:44:40.112Z,14.17
2018-11-11T11:47:08.639Z,14.37
2018-11-11T11:49:37.406Z,13.90
2018-11-11T11:52:06.731Z,12.63
2018-11-11T11:54:35.779Z,13.03
2018-11-11T11:57:05.010Z,15.77
2018-11-11T11:59:33.558Z,14.07
2018-11-11T12:02:03.206Z,20.20
2018-11-11T12:04:33.063Z,17.27
2018-11-11T12:07:01.835Z,12.70
2018-11-11T12:09:30.467Z,15.17
2018-11-11T12:11:59.047Z,14.30
2018-11-11T12:14:27.511Z,12.93
2018-11-11T12:16:56.246Z,13.08
2018-11-11T12:19:31.798Z,12.00
2018-11-11T12:22:00.414Z,10.83
2018-11-11T12:24:29.105Z,9.73
2018-11-11T12:26:57.759Z,9.73
2018-11-11T12:29:26.333Z,9.30
2018-11-11T12:31:55.298Z,8.20
2018-11-11T12:34:24.188Z,7.40
2018-11-11T12:36:53.804Z,6.70
2018-11-11T12:39:22.373Z,8.40
2018-11-11T12:41:57.451Z,15.90
2018-11-11T12:44:35.403Z,24.07
2018-11-11T12:47:04.034Z,9.57
2018-11-11T12:49:32.641Z,9.17
2018-11-11T12:52:01.342Z,11.55
2018-11-11T12:54:29.896Z,7.77
2018-11-11T12:56:58.516Z,10.73
2018-11-11T12:59:27.061Z,9.50
2018-11-11T13:01:55.802Z,9.30
2018-11-11T13:04:24.493Z,8.50
2018-11-11T13:06:53.097Z,8.40
2018-11-11T13:09:21.859Z,9.80
2018-11-11T13:11:50.576Z,8.83
2018-11-11T13:14:19.307Z,9.63
2018-11-11T13:16:47.986Z,12.87
2018-11-11T13:19:16.525Z,12.63
2018-11-11T13:21:45.040Z,12.17
2018-11-11T13:24:13.827Z,10.17
2018-11-11T13:26:42.347Z,12.67
2018-11-11T13:29:11.025Z,16.00
2018-11-11T13:31:39.635Z,13.27
2018-11-11T13:34:08.284Z,12.27
2018-11-11T13:36:36.814Z,8.50
2018-11-11T13:39:09.024Z,8.57
2018-11-11T13:41:37.610Z,8.87
2018-11-11T13:44:09.058Z,14.13
2018-11-11T13:46:38.708Z,31.20
2018-11-11T13:49:07.142Z,7.30
2018-11-11T13:51:36.530Z,7.20
2018-11-11T13:54:05.457Z,6.93
2018-11-11T13:56:34.678Z,5.80
2018-11-11T13:59:03.256Z,5.00
2018-11-11T14:01:31.924Z,5.97
2018-11-11T14:04:00.508Z,6.53
2018-11-11T14:06:29.034Z,4.80
2018-11-11T14:08:57.556Z,4.40
2018-11-11T14:11:26.100Z,6.90
2018-11-11T14:13:54.918Z,5.47
2018-11-11T14:16:23.439Z,7.50
2018-11-11T14:18:52.693Z,7.73
2018-11-11T14:21:20.987Z,6.10
2018-11-11T14:23:49.952Z,6.90
2018-11-11T14:26:18.642Z,11.70
2018-11-11T14:28:47.069Z,9.50
2018-11-11T14:31:16.585Z,8.20
2018-11-11T14:33:45.114Z,16.43
2018-11-11T14:36:13.653Z,12.63
2018-11-11T14:38:42.220Z,8.80
2018-11-11T14:41:10.768Z,13.77
2018-11-11T14:43:39.402Z,10.53
2018-11-11T14:46:08.068Z,5.13
2018-11-11T14:48:36.598Z,10.80
2018-11-11T14:51:05.192Z,5.50
2018-11-11T14:53:33.773Z,5.27
2018-11-11T14:56:02.364Z,3.63
2018-11-11T14:58:31.167Z,4.40
2018-11-11T15:01:00.717Z,9.23
2018-11-11T15:03:29.300Z,9.53
2018-11-11T15:05:57.845Z,6.70
2018-11-11T15:08:26.449Z,6.97
2018-11-11T15:10:55.134Z,6.63
2018-11-11T15:13:23.673Z,6.07
2018-11-11T15:15:52.279Z,9.17
2018-11-11T15:18:20.777Z,5.03
2018-11-11T15:20:49.476Z,5.10
2018-11-11T15:23:18.499Z,6.67
2018-11-11T15:25:46.993Z,5.03
2018-11-11T15:28:16.102Z,4.53
2018-11-11T15:30:44.750Z,3.60
2018-11-11T15:33:14.556Z,4.70
2018-11-11T15:35:43.180Z,4.20
2018-11-11T15:38:11.717Z,6.33
2018-11-11T15:40:40.270Z,5.57
2018-11-11T15:43:08.900Z,4.30
2018-11-11T15:45:37.557Z,5.00
2018-11-11T15:48:07.641Z,4.50
2018-11-11T15:50:36.790Z,4.47
2018-11-11T15:53:06.756Z,4.07
2018-11-11T15:55:36.535Z,4.90
2018-11-11T15:58:05.565Z,5.63
2018-11-11T16:00:36.340Z,9.87
2018-11-11T16:03:05.229Z,12.63
2018-11-11T16:05:33.892Z,7.83
2018-11-11T16:08:03.167Z,5.97
2018-11-11T16:10:32.701Z,7.90
2018-11-11T16:13:01.459Z,7.47
2018-11-11T16:15:34.476Z,5.93
2018-11-11T16:18:05.109Z,6.57
2018-11-11T16:20:33.842Z,6.60
2018-11-11T16:23:03.489Z,8.00
2018-11-11T16:25:32.175Z,6.63
2018-11-11T16:28:00.951Z,12.57
2018-11-11T16:30:31.737Z,10.30
2018-11-11T16:33:00.839Z,9.40
2018-11-11T16:35:30.340Z,7.97
2018-11-11T16:37:59.587Z,8.03
2018-11-11T16:40:29.694Z,7.27
2018-11-11T16:42:58.438Z,6.00
2018-11-11T16:45:28.459Z,5.90
2018-11-11T16:47:57.386Z,7.33
2018-11-11T16:50:28.596Z,7.97
2018-11-11T16:52:58.622Z,5.70
2018-11-11T16:55:28.408Z,7.70
2018-11-11T16:57:57.010Z,7.20
2018-11-11T17:00:27.858Z,6.83
2018-11-11T17:02:57.572Z,6.87
2018-11-11T17:05:27.529Z,6.50
2018-11-11T17:07:56.439Z,6.67
2018-11-11T17:10:26.439Z,6.03
2018-11-11T17:12:56.236Z,7.00
2018-11-11T17:15:26.449Z,6.60
2018-11-11T17:17:55.184Z,7.27
2018-11-11T17:20:24.674Z,6.77
2018-11-11T17:22:55.289Z,7.57
2018-11-11T17:25:24.564Z,10.87
2018-11-11T17:27:53.396Z,13.73
2018-11-11T17:30:23.793Z,12.50
2018-11-11T17:32:53.079Z,13.07
2018-11-11T17:35:21.805Z,9.93
2018-11-11T17:37:50.599Z,8.33
2018-11-11T17:40:21.984Z,7.73
2018-11-11T17:42:51.608Z,9.97
2018-11-11T17:45:20.393Z,9.17
2018-11-11T17:47:50.994Z,11.08
2018-11-11T17:50:25.178Z,9.20
2018-11-11T17:52:53.805Z,9.93
2018-11-11T17:55:23.995Z,9.77
2018-11-11T17:57:52.585Z,9.30
2018-11-11T18:00:23.075Z,8.80
2018-11-11T18:02:51.964Z,8.30
2018-11-11T18:05:21.871Z,9.60
2018-11-11T18:07:50.526Z,11.03
2018-11-11T18:10:20.473Z,9.83
2018-11-11T18:12:49.153Z,9.60
2018-11-11T18:15:19.205Z,9.30
2018-11-11T18:17:47.856Z,10.27
2018-11-11T18:20:17.977Z,11.30
2018-11-11T18:22:47.139Z,11.27
2018-11-11T18:25:15.770Z,12.00
2018-11-11T18:27:44.613Z,12.70
2018-11-11T18:30:17.541Z,12.10
2018-11-11T18:32:46.592Z,11.63
2018-11-11T18:35:16.153Z,12.27
2018-11-11T18:37:44.821Z,12.93
2018-11-11T18:40:14.891Z,13.00
2018-11-11T18:42:43.925Z,12.73
2018-11-11T18:45:14.536Z,12.63
2018-11-11T18:47:43.669Z,13.23
2018-11-11T18:50:15.725Z,15.17
2018-11-11T18:52:44.671Z,11.33
2018-11-11T18:55:13.656Z,11.60
2018-11-11T18:57:42.840Z,12.97
2018-11-11T19:00:14.161Z,11.37
2018-11-11T19:02:43.468Z,13.47
2018-11-11T19:05:13.529Z,14.33
2018-11-11T19:07:42.546Z,14.83
2018-11-11T19:10:13.685Z,18.70
2018-11-11T19:12:43.332Z,18.67
2018-11-11T19:15:13.278Z,15.57
2018-11-11T19:17:42.872Z,14.13
2018-11-11T19:20:13.991Z,13.87
2018-11-11T19:22:42.711Z,14.80
2018-11-11T19:25:13.642Z,13.17
2018-11-11T19:27:43.404Z,12.93
2018-11-11T19:30:13.244Z,13.30
2018-11-11T19:32:42.532Z,14.00
2018-11-11T19:35:12.163Z,10.77
2018-11-11T19:37:41.037Z,10.83
2018-11-11T19:40:13.375Z,11.17
2018-11-11T19:42:42.394Z,16.80
2018-11-11T19:45:12.340Z,13.00
2018-11-11T19:47:41.522Z,14.40
2018-11-11T19:50:12.423Z,12.63
2018-11-11T19:52:42.436Z,11.33
2018-11-11T19:55:12.099Z,13.23
2018-11-11T19:57:40.913Z,10.73
2018-11-11T20:00:12.850Z,13.07
2018-11-11T20:02:42.923Z,12.83
2018-11-11T20:05:12.988Z,13.93
2018-11-11T20:07:42.589Z,11.70
2018-11-11T20:10:12.745Z,11.03
2018-11-11T20:12:41.374Z,13.40
2018-11-11T20:15:15.598Z,12.40
2018-11-11T20:17:45.035Z,12.87
2018-11-11T20:20:16.092Z,11.57
2018-11-11T20:22:44.869Z,13.97
2018-11-11T20:25:14.583Z,15.00
2018-11-11T20:30:52.063Z,9.70
2018-11-11T20:33:20.679Z,9.30
2018-11-11T20:35:50.040Z,9.57
2018-11-11T20:38:29.793Z,9.60
2018-11-11T20:43:36.974Z,10.40
2018-11-11T20:46:19.067Z,9.87
2018-11-11T20:48:47.750Z,10.77
2018-11-11T20:51:16.489Z,9.73
2018-11-11T20:53:45.183Z,10.00
2018-11-11T20:56:13.897Z,10.87
2018-11-11T20:58:43.877Z,10.30
2018-11-11T21:01:30.387Z,10.33
2018-11-11T21:08:18.259Z,11.10
2018-11-11T21:10:47.325Z,10.97
2018-11-11T21:13:15.980Z,11.37
2018-11-11T21:15:54.266Z,11.90
2018-11-11T21:21:18.126Z,10.57
2018-11-11T21:23:50.324Z,10.77
2018-11-11T21:26:19.051Z,11.50
2018-11-11T21:28:47.611Z,11.37
2018-11-11T21:31:17.210Z,11.07
2018-11-11T21:33:46.684Z,11.63
2018-11-11T21:36:15.264Z,11.90
2018-11-11T21:38:43.850Z,11.97
2018-11-11T21:41:12.380Z,10.93
2018-11-11T21:50:10.798Z,12.20
2018-11-11T21:52:39.435Z,13.07
2018-11-11T21:55:09.899Z,12.67
2018-11-11T21:57:38.548Z,12.23
2018-11-11T22:00:09.764Z,12.33
2018-11-11T22:02:38.321Z,13.23
2018-11-11T22:05:08.532Z,12.60
2018-11-11T22:07:43.605Z,13.43
2018-11-11T22:10:13.850Z,13.00
2018-11-11T22:12:42.441Z,13.47
2018-11-11T22:15:20.197Z,12.97
2018-11-11T22:17:48.879Z,13.37
2018-11-11T22:20:17.455Z,12.77
2018-11-11T22:22:46.011Z,12.80
2018-11-11T22:25:14.577Z,12.90
2018-11-11T22:27:43.167Z,12.60
2018-11-11T22:30:12.481Z,13.27
2018-11-11T22:32:41.118Z,14.13
2018-11-11T22:35:10.861Z,13.83
2018-11-11T22:37:39.600Z,13.30
2018-11-11T22:40:10.245Z,14.07
2018-11-11T22:43:05.671Z,14.00
2018-11-11T22:45:34.954Z,13.87
2018-11-11T22:48:03.621Z,13.77
2018-11-11T22:50:32.220Z,14.80
2018-11-11T22:53:00.917Z,14.73
2018-11-11T22:55:29.507Z,13.17
2018-11-11T22:57:58.011Z,14.47
2018-11-11T23:00:29.680Z,14.47
2018-11-11T23:02:58.461Z,16.77
2018-11-11T23:05:27.166Z,16.43
2018-11-11T23:08:22.648Z,15.20
2018-11-11T23:10:53.922Z,14.40
2018-11-11T23:13:22.424Z,15.70
2018-11-11T23:16:03.558Z,15.13
2018-11-11T23:18:31.998Z,15.20
2018-11-11T23:21:00.491Z,15.10
2018-11-11T23:23:29.040Z,14.50
2018-11-11T23:25:57.573Z,14.67
2018-11-11T23:28:26.135Z,13.87
2018-11-11T23:30:54.725Z,14.83
2018-11-11T23:33:23.240Z,15.03
2018-11-11T23:35:51.758Z,15.90
2018-11-11T23:38:20.288Z,16.37
2018-11-11T23:40:48.842Z,15.60
2018-11-11T23:43:22.608Z,15.80
2018-11-11T23:45:51.106Z,15.50
2018-11-11T23:48:19.668Z,14.57
2018-11-11T23:50:48.293Z,16.27
2018-11-11T23:53:16.796Z,15.40
2018-11-11T23:55:45.300Z,15.97
2018-11-11T23:58:13.839Z,16.07
